Terminal Aerodrome Forecast
Issued by NWS

Home | Current Version | Previous Version | Text Only | Print | Product List | Glossary On
Versions: 1 2 3 4 5 6 7 8 9 10 11 12 13
338
FTUS46 KSEW 291120
TAFOLM
TAF
KOLM 291120Z 2912/3012 20005KT P6SM SCT020 OVC035
      TEMPO 2912/2916 OVC020
     FM291900 24007KT P6SM SCT025 BKN035
     FM292200 29008KT P6SM BKN040
     FM300400 VRB04KT P6SM SCT040 SCT050=

USA.gov is the U.S. government's official web portal to all federal, state and local government web resources and services.